Wynau, Switzerland
Current Conditions -  °F | °C
As of 6:20 AM on Thursday 27 Nov 2014 (Local Time) from LSZG Reporting Station
Haze Haze  
Wind Chill: 46°   Ceiling: 300
Heat Index: 46°   Visibility: 1.9mi
Dew Point: 46°   Wind: 2mph
Humidity: 100%   Direction: 90°E
Pressure: 29.8"   Gusts: NA
Location:  47.25°N, 7.82°E
Report Text: LSZG 270520Z AUTO 09002KT 3100 BR BKN003 08/08 Q1009
Loading
Personal Weather Stations






























Interactive Weather Map New forecast layout! Learn more

10-Day Weather Forecast

Advertisements
Track Severe Weather on mobile